Laredo, Missouri
Current Conditions -  °F | °C
As of 7:55 PM on Friday 28 Nov 2014 (Local Time) from KIRK Reporting Station
Clear Clear  
Wind Chill: 33°   Ceiling: Unl
Heat Index: 38°   Visibility: 10mi
Dew Point: 32°   Wind: 7mph
Humidity: 79%   Direction: 190°S
Pressure: 29.79"   Gusts: NA
Location:  40.03°N, 93.45°W
Report Text: KIRK 290155Z AUTO 19006KT 10SM CLR 03/00 A2979 RMK AO2 SLP099 T00330000
Loading
Personal Weather Stations






























Interactive Weather Map New forecast layout! Learn more

10-Day Weather Forecast

Advertisements
Track Severe Weather on mobile